sensor_id;sensor_type;location;lat;lon;timestamp;P1;durP1;ratioP1;P2;durP2;ratioP2
7029;SDS011;3556;53.500;10.176;2023-12-14T00:00:26;3.53;;;3.10;;
7029;SDS011;3556;53.500;10.176;2023-12-14T00:02:52;4.27;;;3.23;;
7029;SDS011;3556;53.500;10.176;2023-12-14T00:05:17;5.00;;;2.83;;
7029;SDS011;3556;53.500;10.176;2023-12-14T00:07:43;2.70;;;2.30;;
7029;SDS011;3556;53.500;10.176;2023-12-14T00:10:09;5.87;;;2.90;;
7029;SDS011;3556;53.500;10.176;2023-12-14T00:12:34;4.30;;;2.97;;
7029;SDS011;3556;53.500;10.176;2023-12-14T00:15:00;3.00;;;2.60;;
7029;SDS011;3556;53.500;10.176;2023-12-14T00:17:26;4.37;;;2.90;;
7029;SDS011;3556;53.500;10.176;2023-12-14T00:19:51;3.50;;;2.43;;
7029;SDS011;3556;53.500;10.176;2023-12-14T00:22:17;2.77;;;2.33;;
7029;SDS011;3556;53.500;10.176;2023-12-14T00:24:42;5.57;;;3.27;;
7029;SDS011;3556;53.500;10.176;2023-12-14T00:27:08;7.13;;;2.83;;
7029;SDS011;3556;53.500;10.176;2023-12-14T00:29:33;3.87;;;2.80;;
7029;SDS011;3556;53.500;10.176;2023-12-14T00:31:59;2.57;;;2.30;;
7029;SDS011;3556;53.500;10.176;2023-12-14T00:34:25;5.07;;;2.87;;
7029;SDS011;3556;53.500;10.176;2023-12-14T00:36:50;5.33;;;2.30;;
7029;SDS011;3556;53.500;10.176;2023-12-14T00:39:16;3.63;;;2.00;;
7029;SDS011;3556;53.500;10.176;2023-12-14T00:41:41;3.13;;;2.00;;
7029;SDS011;3556;53.500;10.176;2023-12-14T00:44:07;2.47;;;2.20;;
7029;SDS011;3556;53.500;10.176;2023-12-14T00:46:32;4.17;;;2.07;;
7029;SDS011;3556;53.500;10.176;2023-12-14T00:48:58;9.30;;;2.43;;
7029;SDS011;3556;53.500;10.176;2023-12-14T00:51:24;3.47;;;1.93;;
7029;SDS011;3556;53.500;10.176;2023-12-14T00:53:49;2.17;;;1.97;;
7029;SDS011;3556;53.500;10.176;2023-12-14T00:56:15;2.40;;;2.20;;
7029;SDS011;3556;53.500;10.176;2023-12-14T00:58:40;9.40;;;2.27;;
7029;SDS011;3556;53.500;10.176;2023-12-14T01:01:06;11.33;;;2.40;;
7029;SDS011;3556;53.500;10.176;2023-12-14T01:03:32;2.80;;;2.07;;
7029;SDS011;3556;53.500;10.176;2023-12-14T01:05:57;4.00;;;1.70;;
7029;SDS011;3556;53.500;10.176;2023-12-14T01:08:23;2.10;;;1.90;;
7029;SDS011;3556;53.500;10.176;2023-12-14T01:10:48;2.20;;;1.70;;
7029;SDS011;3556;53.500;10.176;2023-12-14T01:13:14;2.70;;;2.30;;
7029;SDS011;3556;53.500;10.176;2023-12-14T01:15:40;2.80;;;1.50;;
7029;SDS011;3556;53.500;10.176;2023-12-14T01:18:06;1.90;;;1.70;;
7029;SDS011;3556;53.500;10.176;2023-12-14T01:20:31;4.90;;;1.70;;
7029;SDS011;3556;53.500;10.176;2023-12-14T01:22:57;2.60;;;1.83;;
7029;SDS011;3556;53.500;10.176;2023-12-14T01:25:22;2.00;;;1.60;;
7029;SDS011;3556;53.500;10.176;2023-12-14T01:27:48;4.27;;;1.90;;
7029;SDS011;3556;53.500;10.176;2023-12-14T01:30:13;2.00;;;1.80;;
7029;SDS011;3556;53.500;10.176;2023-12-14T01:32:39;3.93;;;1.47;;
7029;SDS011;3556;53.500;10.176;2023-12-14T01:35:05;6.57;;;1.57;;
7029;SDS011;3556;53.500;10.176;2023-12-14T01:37:31;2.70;;;1.50;;
7029;SDS011;3556;53.500;10.176;2023-12-14T01:39:56;1.77;;;1.67;;
7029;SDS011;3556;53.500;10.176;2023-12-14T01:42:22;2.80;;;2.50;;
7029;SDS011;3556;53.500;10.176;2023-12-14T01:44:47;1.87;;;1.27;;
7029;SDS011;3556;53.500;10.176;2023-12-14T01:47:13;1.67;;;1.57;;
7029;SDS011;3556;53.500;10.176;2023-12-14T01:49:38;4.23;;;1.50;;
7029;SDS011;3556;53.500;10.176;2023-12-14T01:52:06;1.90;;;1.60;;
7029;SDS011;3556;53.500;10.176;2023-12-14T01:54:32;5.80;;;2.00;;
7029;SDS011;3556;53.500;10.176;2023-12-14T01:56:58;1.43;;;1.33;;
7029;SDS011;3556;53.500;10.176;2023-12-14T01:59:24;3.23;;;1.50;;
7029;SDS011;3556;53.500;10.176;2023-12-14T02:01:53;1.23;;;1.13;;
7029;SDS011;3556;53.500;10.176;2023-12-14T02:04:22;2.50;;;1.40;;
7029;SDS011;3556;53.500;10.176;2023-12-14T02:06:48;1.90;;;1.70;;
7029;SDS011;3556;53.500;10.176;2023-12-14T02:09:13;3.83;;;1.70;;
7029;SDS011;3556;53.500;10.176;2023-12-14T02:11:39;2.67;;;1.50;;
7029;SDS011;3556;53.500;10.176;2023-12-14T02:14:05;1.97;;;1.37;;
7029;SDS011;3556;53.500;10.176;2023-12-14T02:16:31;2.37;;;1.63;;
7029;SDS011;3556;53.500;10.176;2023-12-14T02:18:57;1.70;;;1.60;;
7029;SDS011;3556;53.500;10.176;2023-12-14T02:21:23;4.80;;;2.00;;
7029;SDS011;3556;53.500;10.176;2023-12-14T02:23:48;2.13;;;1.60;;
7029;SDS011;3556;53.500;10.176;2023-12-14T02:26:14;2.43;;;2.20;;
7029;SDS011;3556;53.500;10.176;2023-12-14T02:28:40;2.13;;;1.60;;
7029;SDS011;3556;53.500;10.176;2023-12-14T02:31:05;2.83;;;1.83;;
7029;SDS011;3556;53.500;10.176;2023-12-14T02:33:31;2.00;;;1.80;;
7029;SDS011;3556;53.500;10.176;2023-12-14T02:35:57;4.90;;;2.00;;
7029;SDS011;3556;53.500;10.176;2023-12-14T02:38:22;3.03;;;1.80;;
7029;SDS011;3556;53.500;10.176;2023-12-14T02:40:48;2.13;;;1.50;;
7029;SDS011;3556;53.500;10.176;2023-12-14T02:43:17;1.70;;;1.60;;
7029;SDS011;3556;53.500;10.176;2023-12-14T02:45:44;2.07;;;1.70;;
7029;SDS011;3556;53.500;10.176;2023-12-14T02:48:09;2.90;;;1.80;;
7029;SDS011;3556;53.500;10.176;2023-12-14T02:50:35;5.43;;;1.73;;
7029;SDS011;3556;53.500;10.176;2023-12-14T02:53:01;2.17;;;1.63;;
7029;SDS011;3556;53.500;10.176;2023-12-14T02:55:26;2.53;;;1.80;;
7029;SDS011;3556;53.500;10.176;2023-12-14T02:57:52;4.90;;;1.60;;
7029;SDS011;3556;53.500;10.176;2023-12-14T03:00:17;1.90;;;1.70;;
7029;SDS011;3556;53.500;10.176;2023-12-14T03:02:43;1.43;;;1.33;;
7029;SDS011;3556;53.500;10.176;2023-12-14T03:05:09;2.90;;;1.63;;
7029;SDS011;3556;53.500;10.176;2023-12-14T03:07:34;3.53;;;1.53;;
7029;SDS011;3556;53.500;10.176;2023-12-14T03:10:00;3.50;;;1.70;;
7029;SDS011;3556;53.500;10.176;2023-12-14T03:12:27;4.40;;;1.73;;
7029;SDS011;3556;53.500;10.176;2023-12-14T03:14:52;4.43;;;1.67;;
7029;SDS011;3556;53.500;10.176;2023-12-14T03:17:18;3.33;;;1.70;;
7029;SDS011;3556;53.500;10.176;2023-12-14T03:19:43;4.10;;;1.93;;
7029;SDS011;3556;53.500;10.176;2023-12-14T03:22:09;2.43;;;1.80;;
7029;SDS011;3556;53.500;10.176;2023-12-14T03:24:35;4.60;;;1.73;;
7029;SDS011;3556;53.500;10.176;2023-12-14T03:27:01;2.90;;;2.20;;
7029;SDS011;3556;53.500;10.176;2023-12-14T03:29:27;7.60;;;2.17;;
7029;SDS011;3556;53.500;10.176;2023-12-14T03:31:54;4.30;;;1.83;;
7029;SDS011;3556;53.500;10.176;2023-12-14T03:34:20;4.27;;;1.90;;
7029;SDS011;3556;53.500;10.176;2023-12-14T03:36:46;3.83;;;2.00;;
7029;SDS011;3556;53.500;10.176;2023-12-14T03:39:11;3.63;;;2.17;;
7029;SDS011;3556;53.500;10.176;2023-12-14T03:41:37;3.97;;;2.20;;
7029;SDS011;3556;53.500;10.176;2023-12-14T03:44:03;3.73;;;2.20;;
7029;SDS011;3556;53.500;10.176;2023-12-14T03:46:29;7.93;;;2.20;;
7029;SDS011;3556;53.500;10.176;2023-12-14T03:48:54;5.93;;;1.90;;
7029;SDS011;3556;53.500;10.176;2023-12-14T03:51:20;4.43;;;1.70;;
7029;SDS011;3556;53.500;10.176;2023-12-14T03:53:46;3.10;;;1.80;;
7029;SDS011;3556;53.500;10.176;2023-12-14T03:56:12;3.50;;;2.30;;
7029;SDS011;3556;53.500;10.176;2023-12-14T03:58:37;5.40;;;2.27;;
7029;SDS011;3556;53.500;10.176;2023-12-14T04:01:03;3.63;;;1.80;;
7029;SDS011;3556;53.500;10.176;2023-12-14T04:03:29;4.33;;;2.60;;
7029;SDS011;3556;53.500;10.176;2023-12-14T04:05:54;2.63;;;2.00;;
7029;SDS011;3556;53.500;10.176;2023-12-14T04:08:20;2.30;;;2.10;;
7029;SDS011;3556;53.500;10.176;2023-12-14T04:10:45;2.63;;;2.00;;
7029;SDS011;3556;53.500;10.176;2023-12-14T04:13:11;4.80;;;2.43;;
7029;SDS011;3556;53.500;10.176;2023-12-14T04:15:37;7.10;;;2.50;;
7029;SDS011;3556;53.500;10.176;2023-12-14T04:18:02;1.87;;;1.77;;
7029;SDS011;3556;53.500;10.176;2023-12-14T04:20:28;2.80;;;2.00;;
7029;SDS011;3556;53.500;10.176;2023-12-14T04:22:54;3.33;;;2.00;;
7029;SDS011;3556;53.500;10.176;2023-12-14T04:25:20;3.63;;;2.20;;
7029;SDS011;3556;53.500;10.176;2023-12-14T04:27:45;3.73;;;2.00;;
7029;SDS011;3556;53.500;10.176;2023-12-14T04:30:11;3.37;;;2.40;;
7029;SDS011;3556;53.500;10.176;2023-12-14T04:32:37;4.20;;;2.30;;
7029;SDS011;3556;53.500;10.176;2023-12-14T04:35:03;3.83;;;2.47;;
7029;SDS011;3556;53.500;10.176;2023-12-14T04:37:30;2.83;;;2.47;;
7029;SDS011;3556;53.500;10.176;2023-12-14T04:39:56;3.43;;;2.03;;
7029;SDS011;3556;53.500;10.176;2023-12-14T04:42:22;5.73;;;2.40;;
7029;SDS011;3556;53.500;10.176;2023-12-14T04:44:48;6.93;;;2.30;;
7029;SDS011;3556;53.500;10.176;2023-12-14T04:47:13;3.20;;;2.20;;
7029;SDS011;3556;53.500;10.176;2023-12-14T04:49:39;5.80;;;2.60;;
7029;SDS011;3556;53.500;10.176;2023-12-14T04:52:05;4.97;;;3.03;;
7029;SDS011;3556;53.500;10.176;2023-12-14T04:54:31;2.57;;;2.30;;
7029;SDS011;3556;53.500;10.176;2023-12-14T04:56:57;5.33;;;2.87;;
7029;SDS011;3556;53.500;10.176;2023-12-14T04:59:22;6.53;;;2.80;;
7029;SDS011;3556;53.500;10.176;2023-12-14T05:01:48;5.73;;;3.20;;
7029;SDS011;3556;53.500;10.176;2023-12-14T05:04:13;8.20;;;2.27;;
7029;SDS011;3556;53.500;10.176;2023-12-14T05:06:39;4.00;;;3.00;;
7029;SDS011;3556;53.500;10.176;2023-12-14T05:09:05;7.40;;;3.00;;
7029;SDS011;3556;53.500;10.176;2023-12-14T05:11:32;7.90;;;2.70;;
7029;SDS011;3556;53.500;10.176;2023-12-14T05:13:57;5.03;;;2.53;;
7029;SDS011;3556;53.500;10.176;2023-12-14T05:16:23;3.97;;;2.63;;
7029;SDS011;3556;53.500;10.176;2023-12-14T05:18:55;3.13;;;2.83;;
7029;SDS011;3556;53.500;10.176;2023-12-14T05:21:22;4.87;;;2.60;;
7029;SDS011;3556;53.500;10.176;2023-12-14T05:23:48;4.30;;;2.97;;
7029;SDS011;3556;53.500;10.176;2023-12-14T05:26:13;5.80;;;3.27;;
7029;SDS011;3556;53.500;10.176;2023-12-14T05:28:39;5.17;;;3.30;;
7029;SDS011;3556;53.500;10.176;2023-12-14T05:31:05;3.77;;;2.80;;
7029;SDS011;3556;53.500;10.176;2023-12-14T05:33:31;11.00;;;3.30;;
7029;SDS011;3556;53.500;10.176;2023-12-14T05:35:58;5.73;;;3.30;;
7029;SDS011;3556;53.500;10.176;2023-12-14T05:38:24;3.90;;;3.20;;
7029;SDS011;3556;53.500;10.176;2023-12-14T05:40:50;7.20;;;3.40;;
7029;SDS011;3556;53.500;10.176;2023-12-14T05:43:15;16.03;;;3.70;;
7029;SDS011;3556;53.500;10.176;2023-12-14T05:45:41;6.33;;;3.20;;
7029;SDS011;3556;53.500;10.176;2023-12-14T05:48:07;3.30;;;3.00;;
7029;SDS011;3556;53.500;10.176;2023-12-14T05:50:32;4.20;;;2.73;;
7029;SDS011;3556;53.500;10.176;2023-12-14T05:52:58;7.03;;;3.37;;
7029;SDS011;3556;53.500;10.176;2023-12-14T05:55:23;5.77;;;2.90;;
7029;SDS011;3556;53.500;10.176;2023-12-14T05:57:49;7.00;;;3.57;;
7029;SDS011;3556;53.500;10.176;2023-12-14T06:00:15;7.77;;;3.30;;
7029;SDS011;3556;53.500;10.176;2023-12-14T06:02:42;5.10;;;3.10;;
7029;SDS011;3556;53.500;10.176;2023-12-14T06:05:08;4.53;;;3.00;;
7029;SDS011;3556;53.500;10.176;2023-12-14T06:07:33;3.17;;;2.87;;
7029;SDS011;3556;53.500;10.176;2023-12-14T06:09:59;5.73;;;3.27;;
7029;SDS011;3556;53.500;10.176;2023-12-14T06:12:26;5.07;;;2.83;;
7029;SDS011;3556;53.500;10.176;2023-12-14T06:14:52;3.90;;;2.80;;
7029;SDS011;3556;53.500;10.176;2023-12-14T06:17:18;7.53;;;3.50;;
7029;SDS011;3556;53.500;10.176;2023-12-14T06:19:44;5.50;;;3.30;;
7029;SDS011;3556;53.500;10.176;2023-12-14T06:22:09;6.20;;;2.80;;
7029;SDS011;3556;53.500;10.176;2023-12-14T06:24:35;6.87;;;3.40;;
7029;SDS011;3556;53.500;10.176;2023-12-14T06:27:00;5.33;;;3.30;;
7029;SDS011;3556;53.500;10.176;2023-12-14T06:29:26;8.97;;;3.90;;
7029;SDS011;3556;53.500;10.176;2023-12-14T06:31:51;5.00;;;3.40;;
7029;SDS011;3556;53.500;10.176;2023-12-14T06:34:17;6.00;;;3.63;;
7029;SDS011;3556;53.500;10.176;2023-12-14T06:36:44;5.53;;;3.33;;
7029;SDS011;3556;53.500;10.176;2023-12-14T06:39:10;8.37;;;3.70;;
7029;SDS011;3556;53.500;10.176;2023-12-14T06:41:36;6.50;;;3.80;;
7029;SDS011;3556;53.500;10.176;2023-12-14T06:44:02;4.50;;;3.17;;
7029;SDS011;3556;53.500;10.176;2023-12-14T06:46:28;4.03;;;3.23;;
7029;SDS011;3556;53.500;10.176;2023-12-14T06:48:53;3.63;;;3.13;;
7029;SDS011;3556;53.500;10.176;2023-12-14T06:51:20;5.53;;;3.63;;
7029;SDS011;3556;53.500;10.176;2023-12-14T06:53:49;7.90;;;3.90;;
7029;SDS011;3556;53.500;10.176;2023-12-14T06:56:15;5.80;;;3.80;;
7029;SDS011;3556;53.500;10.176;2023-12-14T06:58:41;6.27;;;3.70;;
7029;SDS011;3556;53.500;10.176;2023-12-14T07:01:14;7.27;;;4.00;;
7029;SDS011;3556;53.500;10.176;2023-12-14T07:03:41;5.33;;;3.57;;
7029;SDS011;3556;53.500;10.176;2023-12-14T07:06:11;15.23;;;4.90;;
7029;SDS011;3556;53.500;10.176;2023-12-14T07:08:40;6.20;;;4.50;;
7029;SDS011;3556;53.500;10.176;2023-12-14T07:11:10;8.30;;;4.33;;
7029;SDS011;3556;53.500;10.176;2023-12-14T07:13:36;5.50;;;3.90;;
7029;SDS011;3556;53.500;10.176;2023-12-14T07:16:05;8.40;;;4.30;;
7029;SDS011;3556;53.500;10.176;2023-12-14T07:18:35;5.60;;;4.20;;
7029;SDS011;3556;53.500;10.176;2023-12-14T07:21:02;10.77;;;5.53;;
7029;SDS011;3556;53.500;10.176;2023-12-14T07:23:28;7.53;;;4.90;;
7029;SDS011;3556;53.500;10.176;2023-12-14T07:25:54;7.97;;;4.90;;
7029;SDS011;3556;53.500;10.176;2023-12-14T07:28:20;7.57;;;4.50;;
7029;SDS011;3556;53.500;10.176;2023-12-14T07:30:46;6.67;;;4.30;;
7029;SDS011;3556;53.500;10.176;2023-12-14T07:33:12;7.70;;;4.13;;
7029;SDS011;3556;53.500;10.176;2023-12-14T07:35:38;11.87;;;4.50;;
7029;SDS011;3556;53.500;10.176;2023-12-14T07:38:03;12.77;;;4.10;;
7029;SDS011;3556;53.500;10.176;2023-12-14T07:40:29;8.73;;;3.90;;
7029;SDS011;3556;53.500;10.176;2023-12-14T07:42:54;8.53;;;3.97;;
7029;SDS011;3556;53.500;10.176;2023-12-14T07:45:20;5.30;;;3.73;;
7029;SDS011;3556;53.500;10.176;2023-12-14T07:47:46;6.30;;;4.00;;
7029;SDS011;3556;53.500;10.176;2023-12-14T07:50:11;9.20;;;4.50;;
7029;SDS011;3556;53.500;10.176;2023-12-14T07:52:38;10.40;;;4.70;;
7029;SDS011;3556;53.500;10.176;2023-12-14T07:55:04;9.10;;;4.53;;
7029;SDS011;3556;53.500;10.176;2023-12-14T07:57:30;8.47;;;4.73;;
7029;SDS011;3556;53.500;10.176;2023-12-14T07:59:56;14.33;;;4.83;;
7029;SDS011;3556;53.500;10.176;2023-12-14T08:02:22;10.53;;;5.33;;
7029;SDS011;3556;53.500;10.176;2023-12-14T08:04:48;6.73;;;4.70;;
7029;SDS011;3556;53.500;10.176;2023-12-14T08:07:13;8.10;;;4.67;;
7029;SDS011;3556;53.500;10.176;2023-12-14T08:09:39;11.70;;;4.93;;
7029;SDS011;3556;53.500;10.176;2023-12-14T08:12:04;7.50;;;4.37;;
7029;SDS011;3556;53.500;10.176;2023-12-14T08:14:33;9.53;;;4.60;;
7029;SDS011;3556;53.500;10.176;2023-12-14T08:16:59;9.13;;;5.13;;
7029;SDS011;3556;53.500;10.176;2023-12-14T08:19:28;14.80;;;6.17;;
7029;SDS011;3556;53.500;10.176;2023-12-14T08:21:54;10.40;;;5.20;;
7029;SDS011;3556;53.500;10.176;2023-12-14T08:24:19;9.90;;;4.93;;
7029;SDS011;3556;53.500;10.176;2023-12-14T08:26:45;10.53;;;5.50;;
7029;SDS011;3556;53.500;10.176;2023-12-14T08:29:11;12.00;;;5.73;;
7029;SDS011;3556;53.500;10.176;2023-12-14T08:31:36;15.50;;;5.30;;
7029;SDS011;3556;53.500;10.176;2023-12-14T08:34:02;9.33;;;4.50;;
7029;SDS011;3556;53.500;10.176;2023-12-14T08:36:29;12.87;;;5.33;;
7029;SDS011;3556;53.500;10.176;2023-12-14T08:38:55;13.90;;;5.30;;
7029;SDS011;3556;53.500;10.176;2023-12-14T08:41:20;9.40;;;6.43;;
7029;SDS011;3556;53.500;10.176;2023-12-14T08:43:46;9.93;;;5.70;;
7029;SDS011;3556;53.500;10.176;2023-12-14T08:46:12;11.63;;;6.10;;
7029;SDS011;3556;53.500;10.176;2023-12-14T08:48:37;12.00;;;6.70;;
7029;SDS011;3556;53.500;10.176;2023-12-14T08:51:03;18.60;;;6.10;;
7029;SDS011;3556;53.500;10.176;2023-12-14T08:53:29;13.83;;;7.00;;
7029;SDS011;3556;53.500;10.176;2023-12-14T08:55:55;11.07;;;5.77;;
7029;SDS011;3556;53.500;10.176;2023-12-14T08:58:20;12.27;;;5.60;;
7029;SDS011;3556;53.500;10.176;2023-12-14T09:00:46;11.20;;;6.30;;
7029;SDS011;3556;53.500;10.176;2023-12-14T09:03:12;11.90;;;5.23;;
7029;SDS011;3556;53.500;10.176;2023-12-14T09:05:37;10.00;;;4.97;;
7029;SDS011;3556;53.500;10.176;2023-12-14T09:08:07;10.10;;;5.20;;
7029;SDS011;3556;53.500;10.176;2023-12-14T09:10:32;11.23;;;5.30;;
7029;SDS011;3556;53.500;10.176;2023-12-14T09:12:58;16.60;;;5.70;;
7029;SDS011;3556;53.500;10.176;2023-12-14T09:15:25;8.90;;;4.97;;
7029;SDS011;3556;53.500;10.176;2023-12-14T09:17:51;13.20;;;5.50;;
7029;SDS011;3556;53.500;10.176;2023-12-14T09:20:16;10.40;;;4.83;;
7029;SDS011;3556;53.500;10.176;2023-12-14T09:22:42;9.43;;;4.63;;
7029;SDS011;3556;53.500;10.176;2023-12-14T09:25:07;10.23;;;4.70;;
7029;SDS011;3556;53.500;10.176;2023-12-14T09:27:34;10.90;;;5.10;;
7029;SDS011;3556;53.500;10.176;2023-12-14T09:30:00;10.40;;;5.00;;
7029;SDS011;3556;53.500;10.176;2023-12-14T09:32:25;11.00;;;4.90;;
7029;SDS011;3556;53.500;10.176;2023-12-14T09:34:51;12.33;;;4.50;;
7029;SDS011;3556;53.500;10.176;2023-12-14T09:37:17;14.13;;;5.60;;
7029;SDS011;3556;53.500;10.176;2023-12-14T09:39:42;9.10;;;4.67;;
7029;SDS011;3556;53.500;10.176;2023-12-14T09:42:08;9.43;;;4.67;;
7029;SDS011;3556;53.500;10.176;2023-12-14T09:44:34;10.27;;;4.77;;
7029;SDS011;3556;53.500;10.176;2023-12-14T09:47:02;9.33;;;4.90;;
7029;SDS011;3556;53.500;10.176;2023-12-14T09:49:28;10.30;;;5.30;;
7029;SDS011;3556;53.500;10.176;2023-12-14T09:51:58;7.87;;;4.80;;
7029;SDS011;3556;53.500;10.176;2023-12-14T09:54:27;13.00;;;4.50;;
7029;SDS011;3556;53.500;10.176;2023-12-14T09:56:53;13.33;;;5.23;;
7029;SDS011;3556;53.500;10.176;2023-12-14T09:59:19;13.50;;;5.23;;
7029;SDS011;3556;53.500;10.176;2023-12-14T10:01:46;12.37;;;5.30;;
7029;SDS011;3556;53.500;10.176;2023-12-14T10:04:12;10.67;;;5.53;;
7029;SDS011;3556;53.500;10.176;2023-12-14T10:06:39;9.67;;;4.57;;
7029;SDS011;3556;53.500;10.176;2023-12-14T10:09:07;7.37;;;4.70;;
7029;SDS011;3556;53.500;10.176;2023-12-14T10:11:37;6.90;;;4.67;;
7029;SDS011;3556;53.500;10.176;2023-12-14T10:14:03;8.07;;;4.67;;
7029;SDS011;3556;53.500;10.176;2023-12-14T10:16:43;11.40;;;4.87;;
7029;SDS011;3556;53.500;10.176;2023-12-14T10:19:09;8.40;;;4.70;;
7029;SDS011;3556;53.500;10.176;2023-12-14T10:21:34;14.00;;;5.20;;
7029;SDS011;3556;53.500;10.176;2023-12-14T10:24:01;10.30;;;5.40;;
7029;SDS011;3556;53.500;10.176;2023-12-14T10:26:27;7.93;;;5.00;;
7029;SDS011;3556;53.500;10.176;2023-12-14T10:28:52;14.83;;;5.00;;
7029;SDS011;3556;53.500;10.176;2023-12-14T10:31:18;10.97;;;5.10;;
7029;SDS011;3556;53.500;10.176;2023-12-14T10:33:45;13.43;;;4.93;;
7029;SDS011;3556;53.500;10.176;2023-12-14T10:36:11;14.80;;;5.00;;
7029;SDS011;3556;53.500;10.176;2023-12-14T10:38:45;10.30;;;4.83;;
7029;SDS011;3556;53.500;10.176;2023-12-14T10:41:17;9.20;;;5.17;;
7029;SDS011;3556;53.500;10.176;2023-12-14T10:43:43;7.83;;;4.80;;
7029;SDS011;3556;53.500;10.176;2023-12-14T10:46:09;10.77;;;4.83;;
7029;SDS011;3556;53.500;10.176;2023-12-14T10:48:36;6.60;;;4.80;;
7029;SDS011;3556;53.500;10.176;2023-12-14T10:51:02;11.17;;;4.90;;
7029;SDS011;3556;53.500;10.176;2023-12-14T10:53:30;10.70;;;5.00;;
7029;SDS011;3556;53.500;10.176;2023-12-14T10:55:57;8.73;;;5.27;;
7029;SDS011;3556;53.500;10.176;2023-12-14T10:58:25;12.13;;;5.63;;
7029;SDS011;3556;53.500;10.176;2023-12-14T11:01:00;15.00;;;5.70;;
7029;SDS011;3556;53.500;10.176;2023-12-14T11:03:32;9.23;;;5.47;;
7029;SDS011;3556;53.500;10.176;2023-12-14T11:05:59;8.43;;;5.60;;
7029;SDS011;3556;53.500;10.176;2023-12-14T11:08:25;12.87;;;5.57;;
7029;SDS011;3556;53.500;10.176;2023-12-14T11:10:54;9.57;;;6.13;;
7029;SDS011;3556;53.500;10.176;2023-12-14T11:13:35;10.80;;;5.67;;
7029;SDS011;3556;53.500;10.176;2023-12-14T11:16:03;10.87;;;5.90;;
7029;SDS011;3556;53.500;10.176;2023-12-14T11:18:29;14.43;;;6.93;;
7029;SDS011;3556;53.500;10.176;2023-12-14T11:20:58;9.80;;;6.17;;
7029;SDS011;3556;53.500;10.176;2023-12-14T11:25:51;10.60;;;5.60;;
7029;SDS011;3556;53.500;10.176;2023-12-14T11:28:19;10.33;;;5.60;;
7029;SDS011;3556;53.500;10.176;2023-12-14T11:30:45;8.17;;;4.73;;
7029;SDS011;3556;53.500;10.176;2023-12-14T11:33:12;10.97;;;5.20;;
7029;SDS011;3556;53.500;10.176;2023-12-14T11:35:38;8.57;;;5.67;;
7029;SDS011;3556;53.500;10.176;2023-12-14T11:38:04;9.57;;;5.67;;
7029;SDS011;3556;53.500;10.176;2023-12-14T11:40:44;8.33;;;5.33;;
7029;SDS011;3556;53.500;10.176;2023-12-14T11:43:10;10.33;;;5.77;;
7029;SDS011;3556;53.500;10.176;2023-12-14T11:48:12;10.63;;;5.73;;
7029;SDS011;3556;53.500;10.176;2023-12-14T11:50:38;9.20;;;5.57;;
7029;SDS011;3556;53.500;10.176;2023-12-14T11:53:04;9.20;;;5.20;;
7029;SDS011;3556;53.500;10.176;2023-12-14T11:55:31;9.23;;;5.23;;
7029;SDS011;3556;53.500;10.176;2023-12-14T11:57:58;10.13;;;6.00;;
7029;SDS011;3556;53.500;10.176;2023-12-14T12:00:27;9.93;;;5.57;;
7029;SDS011;3556;53.500;10.176;2023-12-14T12:03:16;8.37;;;5.07;;
7029;SDS011;3556;53.500;10.176;2023-12-14T12:05:44;9.17;;;5.77;;
7029;SDS011;3556;53.500;10.176;2023-12-14T12:08:12;10.10;;;5.43;;
7029;SDS011;3556;53.500;10.176;2023-12-14T12:10:39;9.30;;;5.30;;
7029;SDS011;3556;53.500;10.176;2023-12-14T12:13:07;9.80;;;5.27;;
7029;SDS011;3556;53.500;10.176;2023-12-14T12:15:36;9.57;;;5.20;;
7029;SDS011;3556;53.500;10.176;2023-12-14T12:18:23;9.37;;;4.93;;
7029;SDS011;3556;53.500;10.176;2023-12-14T12:20:47;9.67;;;5.23;;
7029;SDS011;3556;53.500;10.176;2023-12-14T12:23:13;11.17;;;5.30;;
7029;SDS011;3556;53.500;10.176;2023-12-14T12:25:39;12.10;;;5.00;;
7029;SDS011;3556;53.500;10.176;2023-12-14T12:28:04;8.90;;;5.30;;
7029;SDS011;3556;53.500;10.176;2023-12-14T12:30:30;6.30;;;4.80;;
7029;SDS011;3556;53.500;10.176;2023-12-14T12:32:56;9.83;;;5.23;;
7029;SDS011;3556;53.500;10.176;2023-12-14T12:35:22;8.30;;;5.13;;
7029;SDS011;3556;53.500;10.176;2023-12-14T12:37:48;6.00;;;4.73;;
7029;SDS011;3556;53.500;10.176;2023-12-14T12:40:21;6.10;;;4.50;;
7029;SDS011;3556;53.500;10.176;2023-12-14T12:42:48;7.37;;;4.70;;
7029;SDS011;3556;53.500;10.176;2023-12-14T12:45:14;14.53;;;5.90;;
7029;SDS011;3556;53.500;10.176;2023-12-14T12:47:43;9.47;;;5.83;;
7029;SDS011;3556;53.500;10.176;2023-12-14T12:50:10;8.00;;;4.40;;
7029;SDS011;3556;53.500;10.176;2023-12-14T12:52:36;7.20;;;4.90;;
7029;SDS011;3556;53.500;10.176;2023-12-14T12:55:02;11.70;;;5.00;;
7029;SDS011;3556;53.500;10.176;2023-12-14T12:57:29;9.80;;;4.90;;
7029;SDS011;3556;53.500;10.176;2023-12-14T12:59:55;12.97;;;5.13;;
7029;SDS011;3556;53.500;10.176;2023-12-14T13:02:20;6.77;;;4.73;;
7029;SDS011;3556;53.500;10.176;2023-12-14T13:04:46;10.97;;;6.30;;
7029;SDS011;3556;53.500;10.176;2023-12-14T13:07:12;14.93;;;6.90;;
7029;SDS011;3556;53.500;10.176;2023-12-14T13:09:37;11.10;;;5.37;;
7029;SDS011;3556;53.500;10.176;2023-12-14T13:12:03;8.20;;;5.63;;
7029;SDS011;3556;53.500;10.176;2023-12-14T13:14:29;8.10;;;5.10;;
7029;SDS011;3556;53.500;10.176;2023-12-14T13:16:56;11.37;;;4.73;;
7029;SDS011;3556;53.500;10.176;2023-12-14T13:19:23;13.40;;;5.40;;
7029;SDS011;3556;53.500;10.176;2023-12-14T13:21:49;15.53;;;8.27;;
7029;SDS011;3556;53.500;10.176;2023-12-14T13:24:15;14.60;;;6.40;;
7029;SDS011;3556;53.500;10.176;2023-12-14T13:26:40;10.23;;;5.93;;
7029;SDS011;3556;53.500;10.176;2023-12-14T13:29:06;14.03;;;5.70;;
7029;SDS011;3556;53.500;10.176;2023-12-14T13:31:31;8.03;;;5.53;;
7029;SDS011;3556;53.500;10.176;2023-12-14T13:33:57;12.53;;;5.80;;
7029;SDS011;3556;53.500;10.176;2023-12-14T13:36:22;10.33;;;5.47;;
7029;SDS011;3556;53.500;10.176;2023-12-14T13:38:48;8.60;;;4.80;;
7029;SDS011;3556;53.500;10.176;2023-12-14T13:41:14;13.23;;;5.97;;
7029;SDS011;3556;53.500;10.176;2023-12-14T13:43:39;14.43;;;4.63;;
7029;SDS011;3556;53.500;10.176;2023-12-14T13:46:05;16.03;;;5.90;;
7029;SDS011;3556;53.500;10.176;2023-12-14T13:48:31;10.23;;;5.27;;
7029;SDS011;3556;53.500;10.176;2023-12-14T13:50:56;16.00;;;5.00;;
7029;SDS011;3556;53.500;10.176;2023-12-14T13:53:22;9.57;;;4.43;;
7029;SDS011;3556;53.500;10.176;2023-12-14T13:55:48;15.53;;;5.23;;
7029;SDS011;3556;53.500;10.176;2023-12-14T13:58:15;9.47;;;4.60;;
7029;SDS011;3556;53.500;10.176;2023-12-14T14:00:41;8.77;;;4.30;;
7029;SDS011;3556;53.500;10.176;2023-12-14T14:03:08;12.03;;;5.43;;
7029;SDS011;3556;53.500;10.176;2023-12-14T14:05:34;10.43;;;5.30;;
7029;SDS011;3556;53.500;10.176;2023-12-14T14:08:00;9.90;;;4.60;;
7029;SDS011;3556;53.500;10.176;2023-12-14T14:10:26;10.23;;;5.50;;
7029;SDS011;3556;53.500;10.176;2023-12-14T14:12:51;6.83;;;4.80;;
7029;SDS011;3556;53.500;10.176;2023-12-14T14:15:18;12.33;;;5.97;;
7029;SDS011;3556;53.500;10.176;2023-12-14T14:17:45;17.83;;;5.63;;
7029;SDS011;3556;53.500;10.176;2023-12-14T14:20:13;10.10;;;5.03;;
7029;SDS011;3556;53.500;10.176;2023-12-14T14:22:39;9.60;;;5.17;;
7029;SDS011;3556;53.500;10.176;2023-12-14T14:25:05;11.33;;;5.67;;
7029;SDS011;3556;53.500;10.176;2023-12-14T14:27:31;7.67;;;5.50;;
7029;SDS011;3556;53.500;10.176;2023-12-14T14:29:58;10.80;;;4.97;;
7029;SDS011;3556;53.500;10.176;2023-12-14T14:32:23;15.67;;;5.50;;
7029;SDS011;3556;53.500;10.176;2023-12-14T14:34:49;13.50;;;5.70;;
7029;SDS011;3556;53.500;10.176;2023-12-14T14:37:14;15.00;;;5.80;;
7029;SDS011;3556;53.500;10.176;2023-12-14T14:39:40;9.80;;;5.57;;
7029;SDS011;3556;53.500;10.176;2023-12-14T14:42:08;11.07;;;5.57;;
7029;SDS011;3556;53.500;10.176;2023-12-14T14:44:34;12.50;;;5.87;;
7029;SDS011;3556;53.500;10.176;2023-12-14T14:47:00;16.07;;;7.73;;
7029;SDS011;3556;53.500;10.176;2023-12-14T14:49:26;36.10;;;16.90;;
7029;SDS011;3556;53.500;10.176;2023-12-14T14:51:51;27.33;;;13.00;;
7029;SDS011;3556;53.500;10.176;2023-12-14T14:54:17;42.20;;;21.10;;
7029;SDS011;3556;53.500;10.176;2023-12-14T14:56:42;27.97;;;14.40;;